createdAt,value
2023-02-19T00:01:38.033Z,490.07
2023-02-19T00:04:08.407Z,440.27
2023-02-19T00:06:37.055Z,410.13
2023-02-19T00:09:05.618Z,373.57
2023-02-19T00:11:34.647Z,316.07
2023-02-19T00:14:03.617Z,312.07
2023-02-19T00:16:32.592Z,274.57
2023-02-19T00:19:01.420Z,279.83
2023-02-19T00:21:30.988Z,287.77
2023-02-19T00:24:00.805Z,299.17
2023-02-19T00:26:29.588Z,322.43
2023-02-19T00:28:58.378Z,294.37
2023-02-19T00:31:27.291Z,266.37
2023-02-19T00:33:56.104Z,257.43
2023-02-19T00:36:25.183Z,258.10
2023-02-19T00:38:54.686Z,197.20
2023-02-19T00:41:24.151Z,198.77
2023-02-19T00:43:53.194Z,206.10
2023-02-19T00:46:22.827Z,212.83
2023-02-19T00:48:52.449Z,200.23
2023-02-19T00:51:20.788Z,212.40
2023-02-19T00:53:49.165Z,212.03
2023-02-19T00:56:19.122Z,174.93
2023-02-19T00:58:47.379Z,172.90
2023-02-19T01:01:15.959Z,175.63
2023-02-19T01:03:44.113Z,161.20
2023-02-19T01:06:13.077Z,163.57
2023-02-19T01:08:41.202Z,180.47
2023-02-19T01:11:10.581Z,159.67
2023-02-19T01:13:40.428Z,161.37
2023-02-19T01:16:09.912Z,152.47
2023-02-19T01:18:38.369Z,148.73
2023-02-19T01:21:08.351Z,145.10
2023-02-19T01:23:37.242Z,137.13
2023-02-19T01:26:06.662Z,129.93
2023-02-19T01:28:34.866Z,131.40
2023-02-19T01:31:05.637Z,120.47
2023-02-19T01:33:34.261Z,116.43
2023-02-19T01:36:05.004Z,107.90
2023-02-19T01:38:33.187Z,103.77
2023-02-19T01:41:02.419Z,99.37
2023-02-19T01:43:31.145Z,92.10
2023-02-19T01:45:59.331Z,85.63
2023-02-19T01:48:29.717Z,82.93
2023-02-19T01:50:59.764Z,77.03
2023-02-19T01:53:30.059Z,76.63
2023-02-19T01:55:59.774Z,73.07
2023-02-19T01:58:30.622Z,77.20
2023-02-19T02:00:59.009Z,79.23
2023-02-19T02:03:29.674Z,86.37
2023-02-19T02:05:59.528Z,80.10
2023-02-19T02:08:45.476Z,95.13
2023-02-19T02:11:13.704Z,97.27
2023-02-19T02:13:42.120Z,110.33
2023-02-19T02:16:17.401Z,103.43
2023-02-19T02:18:53.869Z,101.77
2023-02-19T02:21:44.477Z,97.03
2023-02-19T02:24:26.888Z,89.77
2023-02-19T02:27:00.167Z,81.03
2023-02-19T02:29:49.032Z,91.67
2023-02-19T02:32:19.444Z,96.20
2023-02-19T02:34:49.230Z,81.03
2023-02-19T02:37:18.254Z,81.20
2023-02-19T02:39:47.416Z,76.33
2023-02-19T02:42:30.670Z,80.60
2023-02-19T02:45:14.499Z,84.20
2023-02-19T02:47:44.882Z,80.50
2023-02-19T02:50:16.243Z,75.17
2023-02-19T02:53:02.942Z,63.00
2023-02-19T02:55:33.101Z,65.17
2023-02-19T02:58:01.307Z,71.40
2023-02-19T03:00:51.315Z,70.37
2023-02-19T03:03:21.342Z,61.00
2023-02-19T03:05:54.148Z,62.37
2023-02-19T03:08:25.978Z,65.47
2023-02-19T03:10:55.665Z,63.83
2023-02-19T03:13:44.489Z,61.53
2023-02-19T03:16:34.317Z,63.23
2023-02-19T03:19:21.244Z,62.60
2023-02-19T03:21:52.773Z,78.33
2023-02-19T03:24:41.084Z,70.30
2023-02-19T03:27:11.231Z,64.10
2023-02-19T03:29:41.018Z,58.93
2023-02-19T03:32:13.380Z,62.03
2023-02-19T03:34:44.641Z,56.70
2023-02-19T03:37:14.883Z,64.00
2023-02-19T03:39:45.254Z,58.57
2023-02-19T03:42:18.095Z,71.53
2023-02-19T03:44:47.553Z,85.30
2023-02-19T03:47:19.438Z,117.20
2023-02-19T03:49:50.136Z,152.13
2023-02-19T03:52:20.429Z,187.83
2023-02-19T03:54:52.876Z,229.87
2023-02-19T03:57:23.828Z,264.97
2023-02-19T03:59:54.676Z,262.33
2023-02-19T04:02:29.457Z,261.23
2023-02-19T04:05:00.525Z,294.70
2023-02-19T04:07:29.905Z,311.43
2023-02-19T04:09:58.246Z,286.93
2023-02-19T04:12:26.943Z,319.27
2023-02-19T04:14:58.788Z,373.07
2023-02-19T04:17:30.887Z,428.73
2023-02-19T04:19:59.678Z,454.87
2023-02-19T04:22:28.246Z,477.83
2023-02-19T04:24:56.718Z,471.83
2023-02-19T04:27:25.279Z,482.77
2023-02-19T04:29:53.464Z,529.57
2023-02-19T04:32:21.648Z,465.23
2023-02-19T04:34:53.341Z,526.17
2023-02-19T04:37:22.427Z,544.43
2023-02-19T04:39:50.585Z,480.30
2023-02-19T04:42:18.769Z,447.00
2023-02-19T04:44:46.989Z,403.47
2023-02-19T04:47:17.739Z,376.53
2023-02-19T04:49:46.143Z,382.63
2023-02-19T04:52:15.654Z,346.50
2023-02-19T04:54:43.909Z,337.77
2023-02-19T04:57:12.068Z,345.73
2023-02-19T04:59:40.223Z,315.83
2023-02-19T05:02:08.363Z,244.77
2023-02-19T05:04:36.567Z,215.50
2023-02-19T05:07:05.108Z,202.53
2023-02-19T05:09:34.658Z,203.37
2023-02-19T05:12:02.840Z,197.33
2023-02-19T05:14:31.032Z,257.47
2023-02-19T05:16:59.195Z,342.17
2023-02-19T05:19:27.393Z,378.17
2023-02-19T05:21:55.553Z,419.23
2023-02-19T05:24:24.350Z,429.43
2023-02-19T05:26:53.854Z,462.63
2023-02-19T05:29:22.005Z,491.30
2023-02-19T05:31:50.234Z,532.90
2023-02-19T05:34:18.436Z,508.17
2023-02-19T05:36:46.611Z,574.87
2023-02-19T05:39:14.746Z,577.93
2023-02-19T05:41:42.910Z,584.53
2023-02-19T05:44:12.769Z,594.20
2023-02-19T05:46:40.937Z,645.27
2023-02-19T05:49:09.135Z,699.93
2023-02-19T05:51:37.580Z,716.30
2023-02-19T05:54:05.830Z,742.70
2023-02-19T05:56:34.966Z,744.27
2023-02-19T05:59:04.745Z,751.97
2023-02-19T06:01:34.327Z,758.93
2023-02-19T06:04:02.688Z,772.77
2023-02-19T06:06:30.916Z,749.73
2023-02-19T06:08:59.160Z,769.17
2023-02-19T06:11:27.413Z,754.70
2023-02-19T06:13:55.598Z,746.77
2023-02-19T06:16:23.906Z,785.33
2023-02-19T06:18:53.598Z,780.83
2023-02-19T06:21:21.974Z,803.20
2023-02-19T06:23:50.139Z,808.17
2023-02-19T06:26:19.309Z,802.13
2023-02-19T06:28:48.179Z,770.00
2023-02-19T06:31:16.507Z,784.47
2023-02-19T06:33:44.934Z,741.90
2023-02-19T06:36:15.745Z,777.77
2023-02-19T06:38:43.986Z,759.83
2023-02-19T06:41:13.055Z,773.97
2023-02-19T06:43:42.152Z,782.83
2023-02-19T06:46:10.767Z,788.43
2023-02-19T06:48:40.571Z,740.23
2023-02-19T06:51:09.475Z,739.03
2023-02-19T06:53:39.168Z,731.77
2023-02-19T06:56:08.512Z,675.83
2023-02-19T06:58:36.826Z,651.50
2023-02-19T07:01:05.109Z,647.37
2023-02-19T07:03:33.306Z,642.33
2023-02-19T07:06:01.718Z,650.63
2023-02-19T07:08:30.599Z,646.50
2023-02-19T07:11:00.420Z,644.80
2023-02-19T07:13:28.916Z,645.03
2023-02-19T07:16:00.059Z,612.30
2023-02-19T07:18:28.353Z,595.30
2023-02-19T07:20:56.595Z,587.37
2023-02-19T07:23:24.772Z,557.37
2023-02-19T07:25:52.924Z,570.50
2023-02-19T07:28:22.402Z,513.70
2023-02-19T07:30:50.535Z,454.67
2023-02-19T07:33:18.926Z,447.07
2023-02-19T07:35:47.724Z,445.17
2023-02-19T07:38:17.712Z,446.20
2023-02-19T07:40:52.098Z,460.77
2023-02-19T07:43:20.677Z,451.27
2023-02-19T07:45:50.445Z,484.70
2023-02-19T07:48:18.687Z,520.20
2023-02-19T07:50:52.861Z,470.53
2023-02-19T07:53:21.041Z,450.30
2023-02-19T07:55:49.204Z,482.20
2023-02-19T07:58:17.385Z,486.20
2023-02-19T08:00:45.770Z,413.67
2023-02-19T08:03:14.411Z,410.20
2023-02-19T08:05:43.797Z,387.07
2023-02-19T08:08:12.799Z,384.83
2023-02-19T08:10:58.815Z,361.30
2023-02-19T08:13:27.954Z,310.47
2023-02-19T08:16:07.447Z,356.00
2023-02-19T08:18:44.209Z,362.13
2023-02-19T08:21:12.493Z,363.40
2023-02-19T08:23:40.993Z,329.63
2023-02-19T08:26:09.869Z,329.20
2023-02-19T08:28:38.186Z,297.83
2023-02-19T08:31:08.095Z,299.93
2023-02-19T08:33:36.704Z,291.27
2023-02-19T08:36:07.065Z,265.77
2023-02-19T08:38:36.391Z,255.50
2023-02-19T08:41:06.080Z,240.03
2023-02-19T08:43:34.326Z,219.87
2023-02-19T08:46:02.501Z,185.90
2023-02-19T08:48:30.724Z,143.47
2023-02-19T08:50:59.588Z,122.67
2023-02-19T08:53:29.206Z,133.70
2023-02-19T08:55:57.341Z,135.83
2023-02-19T08:58:26.206Z,99.90
2023-02-19T09:00:54.752Z,90.80
2023-02-19T09:03:22.905Z,80.67
2023-02-19T09:05:51.053Z,88.27
2023-02-19T09:08:19.541Z,75.53
2023-02-19T09:10:58.489Z,79.67
2023-02-19T09:13:26.736Z,82.13
2023-02-19T09:15:56.856Z,82.70
2023-02-19T09:18:25.296Z,83.03
2023-02-19T09:20:53.466Z,80.77
2023-02-19T09:23:21.626Z,101.77
2023-02-19T09:25:58.672Z,78.33
2023-02-19T09:28:26.794Z,58.50
2023-02-19T09:30:55.046Z,58.80
2023-02-19T09:33:23.197Z,40.20
2023-02-19T09:35:51.353Z,34.43
2023-02-19T09:38:19.556Z,36.10
2023-02-19T09:40:47.861Z,26.13
2023-02-19T09:43:19.469Z,26.00
2023-02-19T09:45:47.966Z,23.93
2023-02-19T09:48:16.106Z,21.37
2023-02-19T09:50:46.522Z,11.80
2023-02-19T09:53:17.114Z,6.07
2023-02-19T09:55:45.786Z,11.27
2023-02-19T09:58:30.000Z,6.23
2023-02-19T10:00:59.193Z,6.00
2023-02-19T10:03:31.828Z,8.67
2023-02-19T10:06:01.781Z,7.50
2023-02-19T10:08:33.163Z,9.57
2023-02-19T10:11:01.769Z,10.77
2023-02-19T10:13:33.103Z,10.67
2023-02-19T10:16:03.208Z,8.70
2023-02-19T10:18:35.281Z,11.07
2023-02-19T10:21:03.764Z,13.67
2023-02-19T10:23:32.111Z,14.70
2023-02-19T10:26:00.912Z,17.33
2023-02-19T10:28:31.335Z,17.23
2023-02-19T10:31:00.347Z,18.27
2023-02-19T10:33:28.748Z,19.37
2023-02-19T10:35:57.949Z,15.40
2023-02-19T10:38:29.170Z,19.50
2023-02-19T10:41:01.584Z,19.47
2023-02-19T10:43:35.112Z,16.80
2023-02-19T10:46:05.319Z,15.27
2023-02-19T10:48:34.692Z,15.07
2023-02-19T10:51:05.050Z,11.37
2023-02-19T10:53:43.918Z,10.10
2023-02-19T10:56:13.465Z,8.37
2023-02-19T10:58:44.818Z,7.10
2023-02-19T11:01:14.728Z,5.80
2023-02-19T11:03:43.108Z,8.90
2023-02-19T11:06:12.527Z,10.00
2023-02-19T11:09:01.513Z,6.33
2023-02-19T11:11:32.627Z,7.30
2023-02-19T11:14:05.129Z,6.93
2023-02-19T11:16:41.300Z,4.73
2023-02-19T11:19:21.670Z,5.20
2023-02-19T11:21:50.248Z,4.83
2023-02-19T11:24:24.237Z,7.17
2023-02-19T11:26:52.489Z,7.30
2023-02-19T11:29:24.430Z,7.70
2023-02-19T11:31:52.715Z,3.97
2023-02-19T11:34:29.825Z,8.00
2023-02-19T11:37:10.994Z,5.13
2023-02-19T11:39:39.338Z,8.03
2023-02-19T11:42:13.639Z,6.90
2023-02-19T11:44:49.934Z,7.50
2023-02-19T11:47:33.722Z,11.93
2023-02-19T11:50:04.853Z,22.77
2023-02-19T11:52:37.794Z,22.20
2023-02-19T11:55:11.349Z,27.03
2023-02-19T11:57:43.828Z,23.17
2023-02-19T12:00:25.780Z,32.73
2023-02-19T12:03:11.885Z,53.20
2023-02-19T12:05:51.338Z,36.63
2023-02-19T12:08:37.501Z,26.90
2023-02-19T12:11:29.606Z,16.50
2023-02-19T12:14:04.003Z,12.17
2023-02-19T12:16:39.992Z,9.43
2023-02-19T12:19:17.443Z,6.50
2023-02-19T12:21:51.366Z,2.33
2023-02-19T12:24:34.482Z,3.20
2023-02-19T12:27:09.980Z,5.63
2023-02-19T12:29:48.957Z,2.33
2023-02-19T12:32:32.363Z,1.87
2023-02-19T12:35:18.458Z,1.87
2023-02-19T12:37:50.040Z,1.90
2023-02-19T12:40:23.307Z,3.07
2023-02-19T12:42:56.813Z,2.53
2023-02-19T12:45:26.673Z,5.40
2023-02-19T12:48:01.281Z,4.43
2023-02-19T12:50:30.576Z,12.90
2023-02-19T12:52:59.792Z,8.37
2023-02-19T12:55:29.097Z,5.63
2023-02-19T12:57:58.584Z,5.77
2023-02-19T13:00:31.855Z,11.60
2023-02-19T13:03:04.832Z,12.83
2023-02-19T13:05:39.701Z,7.87
2023-02-19T13:08:09.564Z,5.90
2023-02-19T13:10:41.251Z,7.90
2023-02-19T13:13:11.988Z,8.13
2023-02-19T13:15:41.758Z,4.70
2023-02-19T13:18:15.375Z,4.13
2023-02-19T13:20:44.579Z,5.43
2023-02-19T13:23:32.296Z,5.30
2023-02-19T13:26:10.433Z,4.40
2023-02-19T13:28:45.442Z,3.80
2023-02-19T13:31:29.618Z,4.47
2023-02-19T13:34:04.623Z,4.43
2023-02-19T13:36:33.065Z,4.90
2023-02-19T13:39:01.601Z,5.63
2023-02-19T13:41:30.579Z,5.00
2023-02-19T13:44:00.673Z,5.10
2023-02-19T13:46:34.890Z,5.33
2023-02-19T13:49:23.918Z,6.80
2023-02-19T13:51:53.710Z,7.53
2023-02-19T13:54:23.328Z,2.40
2023-02-19T13:56:52.006Z,4.27
2023-02-19T13:59:24.929Z,3.87
2023-02-19T14:02:17.734Z,3.10
2023-02-19T14:04:51.780Z,3.93
2023-02-19T14:07:38.426Z,4.53
2023-02-19T14:10:07.283Z,6.00
2023-02-19T14:12:36.492Z,5.40
2023-02-19T14:15:34.632Z,3.47
2023-02-19T14:18:02.908Z,2.70
2023-02-19T14:20:42.872Z,5.20
2023-02-19T14:23:18.040Z,2.77
2023-02-19T14:25:47.935Z,2.60
2023-02-19T14:28:19.999Z,4.73
2023-02-19T14:30:50.413Z,2.87
2023-02-19T14:33:19.822Z,2.37
2023-02-19T14:35:48.927Z,2.13
2023-02-19T14:38:20.837Z,2.17
2023-02-19T14:40:49.521Z,2.43
2023-02-19T14:43:18.961Z,1.67
2023-02-19T14:45:49.091Z,1.37
2023-02-19T14:48:22.356Z,1.13
2023-02-19T14:50:52.322Z,1.63
2023-02-19T14:53:22.286Z,1.20
2023-02-19T14:55:51.013Z,2.87
2023-02-19T14:58:21.688Z,2.50
2023-02-19T15:00:49.930Z,2.23
2023-02-19T15:03:32.133Z,0.80
2023-02-19T15:06:02.630Z,0.53
2023-02-19T15:08:43.847Z,0.60
2023-02-19T15:11:14.139Z,0.60
2023-02-19T15:13:45.709Z,2.10
2023-02-19T15:16:18.396Z,2.43
2023-02-19T15:18:47.267Z,1.37
2023-02-19T15:21:23.111Z,1.13
2023-02-19T15:23:52.904Z,0.50
2023-02-19T15:26:22.564Z,1.43
2023-02-19T15:28:58.338Z,1.53
2023-02-19T15:31:26.604Z,1.93
2023-02-19T15:33:55.344Z,4.40
2023-02-19T15:36:28.264Z,1.87
2023-02-19T15:38:59.391Z,0.70
2023-02-19T15:41:29.437Z,1.43
2023-02-19T15:43:59.963Z,0.50
2023-02-19T15:46:28.361Z,0.90
2023-02-19T15:49:00.018Z,1.73
2023-02-19T15:51:31.662Z,5.40
2023-02-19T15:54:04.184Z,1.60
2023-02-19T15:56:33.878Z,1.20
2023-02-19T15:59:04.495Z,1.50
2023-02-19T16:01:34.570Z,2.57
2023-02-19T16:04:02.985Z,1.40
2023-02-19T16:06:31.322Z,1.50
2023-02-19T16:09:05.659Z,1.70
2023-02-19T16:11:37.078Z,2.47
2023-02-19T16:14:18.980Z,4.37
2023-02-19T16:16:47.951Z,5.47
2023-02-19T16:19:21.377Z,10.70
2023-02-19T16:21:49.617Z,12.00
2023-02-19T16:24:22.389Z,8.00
2023-02-19T16:26:50.813Z,8.17
2023-02-19T16:29:20.645Z,5.97
2023-02-19T16:31:49.970Z,4.43
2023-02-19T16:34:19.521Z,2.43
2023-02-19T16:36:49.262Z,3.00
2023-02-19T16:39:22.442Z,1.43
2023-02-19T16:42:17.493Z,1.20
2023-02-19T16:44:46.238Z,2.00
2023-02-19T16:47:16.941Z,2.83
2023-02-19T16:49:45.427Z,1.43
2023-02-19T16:52:16.687Z,1.13
2023-02-19T16:54:46.243Z,2.90
2023-02-19T16:57:14.452Z,2.00
2023-02-19T16:59:42.617Z,1.70
2023-02-19T17:02:16.093Z,2.63
2023-02-19T17:04:44.374Z,1.77
2023-02-19T17:07:14.582Z,1.93
2023-02-19T17:09:42.762Z,1.23
2023-02-19T17:12:14.011Z,4.60
2023-02-19T17:14:42.210Z,2.70
2023-02-19T17:17:10.438Z,1.50
2023-02-19T17:19:39.317Z,1.47
2023-02-19T17:22:07.953Z,1.67
2023-02-19T17:24:36.233Z,2.00
2023-02-19T17:27:04.553Z,1.60
2023-02-19T17:29:36.993Z,4.47
2023-02-19T17:32:05.489Z,1.30
2023-02-19T17:34:33.688Z,1.93
2023-02-19T17:37:01.917Z,2.80
2023-02-19T17:39:30.056Z,1.97
2023-02-19T17:41:58.187Z,5.47
2023-02-19T17:44:26.373Z,6.00
2023-02-19T17:46:55.908Z,2.33
2023-02-19T17:49:24.095Z,5.20
2023-02-19T17:51:52.257Z,5.30
2023-02-19T17:54:20.449Z,5.73
2023-02-19T17:56:48.639Z,4.87
2023-02-19T17:59:18.290Z,2.33
2023-02-19T18:01:47.043Z,4.63
2023-02-19T18:04:16.650Z,3.53
2023-02-19T18:06:44.815Z,2.47
2023-02-19T18:09:15.196Z,4.27
2023-02-19T18:11:46.234Z,2.80
2023-02-19T18:14:14.427Z,1.57
2023-02-19T18:16:49.415Z,2.80
2023-02-19T18:19:19.890Z,4.03
2023-02-19T18:21:48.140Z,1.57
2023-02-19T18:24:16.313Z,1.27
2023-02-19T18:26:44.678Z,3.70
2023-02-19T18:29:12.986Z,2.97
2023-02-19T18:31:41.298Z,4.20
2023-02-19T18:34:17.115Z,2.13
2023-02-19T18:36:47.512Z,3.07
2023-02-19T18:39:16.022Z,6.03
2023-02-19T18:41:47.734Z,4.03
2023-02-19T18:44:18.255Z,3.37
2023-02-19T18:46:46.375Z,5.53
2023-02-19T18:49:14.751Z,3.33
2023-02-19T18:51:43.934Z,3.50
2023-02-19T18:54:13.478Z,2.93
2023-02-19T18:56:42.451Z,3.13
2023-02-19T18:59:10.655Z,3.07
2023-02-19T19:01:39.184Z,3.83
2023-02-19T19:04:07.507Z,2.80
2023-02-19T19:06:36.067Z,3.67
2023-02-19T19:09:04.253Z,5.07
2023-02-19T19:11:34.115Z,3.90
2023-02-19T19:14:02.273Z,3.63
2023-02-19T19:16:30.860Z,4.50
2023-02-19T19:18:59.091Z,3.83
2023-02-19T19:21:27.411Z,2.60
2023-02-19T19:23:55.598Z,2.27
2023-02-19T19:26:23.844Z,5.07
2023-02-19T19:28:53.439Z,3.23
2023-02-19T19:31:22.235Z,5.80
2023-02-19T19:33:50.948Z,3.77
2023-02-19T19:36:21.147Z,4.93
2023-02-19T19:38:49.357Z,5.43
2023-02-19T19:41:18.051Z,4.67
2023-02-19T19:43:46.513Z,3.10
2023-02-19T19:46:19.081Z,6.83
2023-02-19T19:48:47.329Z,5.13
2023-02-19T19:51:15.875Z,4.47
2023-02-19T19:53:44.085Z,8.63
2023-02-19T19:56:12.374Z,4.50
2023-02-19T19:58:40.569Z,5.40
2023-02-19T20:01:08.918Z,4.47
2023-02-19T20:03:39.173Z,4.10
2023-02-19T20:06:07.564Z,5.93
2023-02-19T20:08:35.730Z,4.40
2023-02-19T20:11:04.182Z,6.03
2023-02-19T20:13:34.450Z,6.50
2023-02-19T20:16:02.730Z,6.27
2023-02-19T20:18:31.102Z,4.97
2023-02-19T20:21:00.691Z,7.27
2023-02-19T20:23:28.920Z,7.57
2023-02-19T20:25:57.627Z,6.53
2023-02-19T20:28:25.842Z,5.83
2023-02-19T20:30:54.309Z,7.43
2023-02-19T20:33:22.458Z,5.77
2023-02-19T20:35:50.687Z,7.07
2023-02-19T20:38:20.243Z,8.93
2023-02-19T20:40:48.584Z,6.93
2023-02-19T20:43:16.773Z,7.63
2023-02-19T20:45:46.495Z,6.67
2023-02-19T20:48:16.195Z,8.03
2023-02-19T20:50:44.458Z,6.80
2023-02-19T20:53:12.766Z,9.43
2023-02-19T20:55:42.283Z,5.50
2023-02-19T20:58:10.509Z,6.50
2023-02-19T21:00:38.716Z,7.77
2023-02-19T21:03:08.949Z,8.57
2023-02-19T21:05:37.994Z,7.03
2023-02-19T21:08:06.492Z,8.27
2023-02-19T21:10:34.774Z,8.57
2023-02-19T21:13:04.314Z,7.57
2023-02-19T21:15:32.514Z,7.50
2023-02-19T21:18:00.689Z,5.80
2023-02-19T21:20:28.844Z,5.63
2023-02-19T21:22:56.989Z,8.07
2023-02-19T21:25:25.152Z,6.93
2023-02-19T21:27:53.306Z,8.07
2023-02-19T21:30:22.870Z,7.77
2023-02-19T21:32:51.025Z,6.43
2023-02-19T21:35:19.267Z,7.27
2023-02-19T21:37:47.459Z,7.50
2023-02-19T21:40:15.792Z,7.47
2023-02-19T21:42:44.555Z,7.97
2023-02-19T21:45:12.742Z,9.40
2023-02-19T21:47:42.281Z,9.07
2023-02-19T21:50:10.691Z,10.67
2023-02-19T21:52:38.829Z,9.33
2023-02-19T21:55:07.420Z,9.30
2023-02-19T21:57:35.556Z,8.40
2023-02-19T22:00:05.362Z,8.63
2023-02-19T22:02:33.581Z,10.50
2023-02-19T22:05:03.120Z,9.60
2023-02-19T22:07:31.563Z,7.60
2023-02-19T22:09:59.777Z,11.17
2023-02-19T22:12:27.999Z,7.77
2023-02-19T22:14:56.175Z,11.23
2023-02-19T22:17:24.380Z,9.27
2023-02-19T22:19:52.492Z,9.53
2023-02-19T22:22:22.089Z,10.20
2023-02-19T22:24:50.198Z,12.63
2023-02-19T22:27:18.469Z,11.20
2023-02-19T22:29:46.602Z,12.60
2023-02-19T22:32:14.930Z,12.33
2023-02-19T22:34:43.718Z,10.27
2023-02-19T22:37:12.233Z,12.30
2023-02-19T22:39:41.767Z,11.07
2023-02-19T22:42:09.972Z,10.73
2023-02-19T22:44:38.300Z,11.67
2023-02-19T22:47:06.541Z,14.17
2023-02-19T22:49:34.716Z,11.80
2023-02-19T22:52:04.378Z,12.80
2023-02-19T22:54:32.549Z,13.23
2023-02-19T22:57:02.088Z,13.53
2023-02-19T22:59:30.478Z,10.07
2023-02-19T23:01:58.832Z,13.80
2023-02-19T23:04:27.418Z,10.47
2023-02-19T23:06:55.655Z,15.63
2023-02-19T23:09:25.176Z,15.57
2023-02-19T23:11:53.760Z,14.50
2023-02-19T23:14:24.348Z,15.77
2023-02-19T23:16:52.625Z,15.83
2023-02-19T23:19:21.044Z,16.63
2023-02-19T23:21:49.454Z,14.93
2023-02-19T23:24:18.268Z,15.60
2023-02-19T23:26:46.881Z,16.60
2023-02-19T23:29:16.585Z,14.07
2023-02-19T23:31:46.493Z,18.53
2023-02-19T23:34:14.846Z,17.93
2023-02-19T23:36:43.298Z,19.00
2023-02-19T23:39:11.867Z,18.27
2023-02-19T23:41:40.152Z,21.13
2023-02-19T23:44:08.385Z,20.83
2023-02-19T23:46:36.593Z,21.00
2023-02-19T23:49:06.381Z,21.33
2023-02-19T23:51:34.558Z,20.23
2023-02-19T23:54:02.742Z,20.37
2023-02-19T23:56:31.316Z,22.50
2023-02-19T23:58:59.478Z,23.80
